Time;durP1;ratioP1;P1;durP2;ratioP2;P2;SDS_P1;SDS_P2;PMS_P1;PMS_P2;Temp;Humidity;BMP_temperature;BMP_pressure;BME280_temperature;BME280_humidity;BME280_pressure;Samples;Min_cycle;Max_cycle;Signal;HPM_P1;HPM_P2
2021/05/20 00:00:01;;;;;;;1.20;1.10;;;10.50;98.00;;;;;;5051475;28;20663;-71
2021/05/20 00:02:28;;;;;;;1.20;0.90;;;10.60;98.00;;;;;;5054234;28;20463;-71
2021/05/20 00:04:55;;;;;;;1.60;1.20;;;10.40;98.00;;;;;;5051134;28;20454;-72
2021/05/20 00:07:22;;;;;;;1.20;1.00;;;10.40;98.00;;;;;;5054153;28;20814;-71
2021/05/20 00:09:49;;;;;;;1.20;0.90;;;10.40;98.00;;;;;;5051473;28;20808;-71
2021/05/20 00:12:16;;;;;;;1.20;1.00;;;10.40;98.00;;;;;;5052727;28;20955;-71
2021/05/20 00:14:42;;;;;;;1.20;1.00;;;10.40;98.00;;;;;;5050036;28;20509;-71
2021/05/20 00:17:09;;;;;;;1.20;1.03;;;10.20;98.00;;;;;;5054379;28;20456;-70
2021/05/20 00:19:38;;;;;;;1.20;1.00;;;10.20;98.00;;;;;;5051261;28;20486;-71
2021/05/20 00:22:04;;;;;;;1.20;1.00;;;10.20;98.00;;;;;;5052761;28;20470;-70
2021/05/20 00:24:32;;;;;;;1.20;1.00;;;10.20;98.00;;;;;;5051185;28;20461;-72
2021/05/20 00:26:58;;;;;;;1.20;1.00;;;10.40;98.00;;;;;;5053948;28;20893;-71
2021/05/20 00:29:25;;;;;;;1.20;1.00;;;10.30;98.00;;;;;;5051269;28;20479;-71
2021/05/20 00:31:51;;;;;;;1.20;0.90;;;10.40;98.00;;;;;;5053506;28;20461;-70
2021/05/20 00:34:18;;;;;;;1.20;1.00;;;10.30;98.00;;;;;;5051067;28;20493;-69
2021/05/20 00:36:44;;;;;;;1.20;1.00;;;10.20;98.00;;;;;;5052496;28;20503;-70
2021/05/20 00:39:11;;;;;;;1.20;0.90;;;10.20;98.00;;;;;;5050646;28;20484;-71
2021/05/20 00:41:38;;;;;;;1.20;0.90;;;10.20;98.00;;;;;;5053568;28;20463;-71
2021/05/20 00:44:05;;;;;;;1.20;1.10;;;10.20;98.00;;;;;;5050748;28;20961;-71
2021/05/20 00:46:32;;;;;;;1.20;1.00;;;10.10;98.00;;;;;;5053368;28;20531;-71
2021/05/20 00:48:58;;;;;;;1.50;1.10;;;10.00;98.00;;;;;;5050298;28;20470;-70
2021/05/20 00:51:25;;;;;;;1.20;1.00;;;10.00;98.00;;;;;;5053332;28;20468;-70
2021/05/20 00:53:52;;;;;;;1.20;1.00;;;10.00;98.00;;;;;;5050710;28;20458;-71
2021/05/20 00:56:21;;;;;;;3.30;1.33;;;9.90;98.00;;;;;;5053529;28;20457;-70
2021/05/20 00:58:49;;;;;;;1.20;1.10;;;9.90;98.00;;;;;;5049894;28;20492;-70
2021/05/20 01:01:16;;;;;;;1.20;1.10;;;9.80;98.00;;;;;;5053401;28;20481;-71
2021/05/20 01:03:43;;;;;;;1.20;0.90;;;9.90;98.00;;;;;;5050685;28;20457;-71
2021/05/20 01:06:10;;;;;;;1.20;1.20;;;9.80;98.00;;;;;;5053159;28;21012;-71
2021/05/20 01:08:37;;;;;;;1.20;1.10;;;9.90;98.00;;;;;;5050404;28;20462;-71
2021/05/20 01:11:03;;;;;;;1.20;1.00;;;9.90;98.00;;;;;;5053182;28;20461;-70
2021/05/20 01:13:30;;;;;;;1.20;1.00;;;10.00;98.00;;;;;;5050335;28;20842;-70
2021/05/20 01:15:57;;;;;;;1.20;1.00;;;10.00;98.00;;;;;;5053037;28;20457;-70
2021/05/20 01:18:23;;;;;;;2.80;1.20;;;10.10;98.00;;;;;;5050104;28;20485;-71
2021/05/20 01:20:51;;;;;;;1.20;0.90;;;10.20;98.00;;;;;;5052683;28;20518;-70
2021/05/20 01:23:19;;;;;;;1.63;1.23;;;10.20;98.00;;;;;;5051822;28;20526;-70
2021/05/20 01:25:48;;;;;;;1.20;1.00;;;10.20;98.00;;;;;;5052591;28;21016;-71
2021/05/20 01:28:17;;;;;;;2.43;1.10;;;10.30;98.00;;;;;;5052818;28;20452;-71
2021/05/20 01:30:45;;;;;;;1.20;1.00;;;10.40;98.00;;;;;;5051868;28;20464;-71
2021/05/20 01:33:12;;;;;;;1.20;1.00;;;10.40;98.00;;;;;;5052628;28;20463;-71
2021/05/20 01:35:39;;;;;;;1.20;0.90;;;10.30;98.00;;;;;;5049951;28;20454;-72
2021/05/20 01:40:53;;;;;;;1.20;0.93;;;10.20;98.00;;;;;;5052366;28;20592;-71
2021/05/20 01:43:19;;;;;;;1.20;1.00;;;10.10;98.00;;;;;;5051698;28;20462;-70
2021/05/20 01:45:50;;;;;;;1.20;0.90;;;10.20;98.00;;;;;;5051513;28;20462;-71
2021/05/20 01:48:16;;;;;;;1.20;1.00;;;10.30;98.00;;;;;;5052097;28;20461;-71
2021/05/20 01:50:43;;;;;;;1.20;0.90;;;10.30;98.00;;;;;;5048547;28;20452;-71
2021/05/20 01:53:10;;;;;;;1.20;1.00;;;10.30;98.00;;;;;;5052534;28;20450;-71
2021/05/20 01:55:37;;;;;;;1.20;1.00;;;10.20;98.00;;;;;;5049381;28;20508;-70
2021/05/20 01:58:03;;;;;;;1.20;1.00;;;10.20;98.00;;;;;;5052339;28;20454;-71
2021/05/20 02:00:30;;;;;;;1.20;1.00;;;10.20;98.00;;;;;;5049500;28;20513;-71
2021/05/20 02:02:56;;;;;;;1.20;1.00;;;10.10;98.00;;;;;;5052151;28;21006;-71
2021/05/20 02:05:23;;;;;;;1.20;1.00;;;10.10;98.00;;;;;;5049134;28;20826;-71
2021/05/20 02:07:49;;;;;;;1.20;1.00;;;10.00;98.00;;;;;;5050715;28;20508;-70
2021/05/20 02:10:17;;;;;;;1.20;1.00;;;10.00;98.00;;;;;;5049735;28;20460;-71
2021/05/20 02:12:43;;;;;;;1.20;1.00;;;9.90;98.00;;;;;;5051965;28;20458;-71
2021/05/20 02:15:11;;;;;;;1.20;0.93;;;10.10;98.00;;;;;;5049099;28;20480;-71
2021/05/20 02:17:37;;;;;;;1.20;1.00;;;10.20;98.00;;;;;;5051330;28;20473;-70
2021/05/20 02:20:06;;;;;;;1.20;1.00;;;10.20;98.00;;;;;;5049028;28;20490;-71
2021/05/20 02:22:33;;;;;;;1.20;1.00;;;10.20;98.00;;;;;;5051602;28;20924;-70
2021/05/20 02:24:59;;;;;;;1.40;1.30;;;10.20;98.00;;;;;;5048795;28;20459;-71
2021/05/20 02:27:27;;;;;;;1.20;1.07;;;10.30;98.00;;;;;;5051428;28;20960;-70
2021/05/20 02:29:53;;;;;;;1.20;1.00;;;10.30;98.00;;;;;;5049430;28;21009;-71
2021/05/20 02:32:20;;;;;;;1.20;1.13;;;10.40;98.00;;;;;;5051471;28;20469;-70
2021/05/20 02:34:46;;;;;;;1.30;1.10;;;10.40;98.00;;;;;;5048824;28;20532;-71
2021/05/20 02:37:13;;;;;;;1.20;1.00;;;10.30;98.00;;;;;;5051894;28;20844;-71
2021/05/20 02:39:39;;;;;;;1.20;1.00;;;10.10;98.00;;;;;;5048956;28;20487;-71
2021/05/20 02:42:07;;;;;;;1.20;1.00;;;10.00;98.00;;;;;;5051648;28;20446;-71
2021/05/20 02:44:34;;;;;;;1.20;1.00;;;10.10;98.00;;;;;;5048899;28;20942;-71
2021/05/20 02:47:01;;;;;;;1.30;1.10;;;10.20;98.00;;;;;;5051664;28;20463;-70
2021/05/20 02:49:27;;;;;;;1.20;0.97;;;10.20;98.00;;;;;;5048306;28;20473;-71
2021/05/20 02:51:54;;;;;;;1.20;1.00;;;10.20;98.00;;;;;;5051511;28;20459;-71
2021/05/20 02:54:20;;;;;;;1.20;1.00;;;10.20;98.00;;;;;;5048751;28;20464;-71
2021/05/20 02:56:47;;;;;;;1.20;0.90;;;10.20;98.00;;;;;;5050184;28;20453;-71
2021/05/20 02:59:13;;;;;;;1.20;1.00;;;10.30;98.00;;;;;;5048473;28;20506;-70
2021/05/20 03:01:43;;;;;;;1.20;1.00;;;10.30;98.00;;;;;;5051090;28;20453;-71
2021/05/20 03:04:09;;;;;;;1.20;0.90;;;10.30;98.00;;;;;;5048387;28;20468;-71
2021/05/20 03:06:36;;;;;;;1.20;0.90;;;10.30;98.00;;;;;;5051283;28;20459;-70
2021/05/20 03:09:04;;;;;;;1.20;0.90;;;10.50;98.00;;;;;;5048665;28;20454;-71
2021/05/20 03:11:32;;;;;;;1.20;0.90;;;10.40;98.00;;;;;;5050937;28;20489;-70
2021/05/20 03:13:58;;;;;;;1.20;0.90;;;10.40;98.00;;;;;;5048349;28;20446;-71
2021/05/20 03:16:25;;;;;;;1.20;1.00;;;10.40;98.00;;;;;;5051328;28;21021;-70
2021/05/20 03:18:53;;;;;;;1.20;0.90;;;10.40;98.00;;;;;;5048165;28;20487;-70
2021/05/20 03:21:20;;;;;;;1.20;1.00;;;10.40;98.00;;;;;;5051041;28;20459;-71
2021/05/20 03:23:46;;;;;;;1.20;0.90;;;10.50;98.00;;;;;;5047863;28;20984;-71
2021/05/20 03:26:13;;;;;;;1.20;1.00;;;10.40;98.00;;;;;;5050332;28;20465;-70
2021/05/20 03:28:39;;;;;;;1.20;0.90;;;10.40;98.00;;;;;;5047638;28;20461;-71
2021/05/20 03:31:06;;;;;;;1.20;1.00;;;10.30;98.00;;;;;;5052790;28;20458;-71
2021/05/20 03:33:33;;;;;;;1.20;1.00;;;10.30;98.00;;;;;;5052861;28;20901;-71
2021/05/20 03:36:00;;;;;;;1.20;1.00;;;10.20;98.00;;;;;;5053507;28;20949;-70
2021/05/20 03:38:26;;;;;;;1.20;1.00;;;10.20;98.00;;;;;;5054679;28;20471;-71
2021/05/20 03:40:53;;;;;;;1.20;1.00;;;10.20;98.00;;;;;;5051284;28;20514;-70
2021/05/20 03:43:19;;;;;;;1.20;1.00;;;10.20;98.00;;;;;;5054515;28;20547;-71
2021/05/20 03:45:46;;;;;;;1.20;1.00;;;10.20;98.00;;;;;;5052080;28;20779;-71
2021/05/20 03:48:12;;;;;;;1.20;1.00;;;10.20;98.00;;;;;;5053140;28;20462;-70
2021/05/20 03:50:40;;;;;;;1.20;1.00;;;10.20;98.00;;;;;;5051115;28;20531;-70
2021/05/20 03:53:07;;;;;;;1.20;0.90;;;10.30;98.00;;;;;;5054503;28;20967;-70
2021/05/20 03:55:34;;;;;;;1.20;1.10;;;10.40;98.00;;;;;;5052000;28;20474;-70
2021/05/20 03:58:00;;;;;;;1.20;0.90;;;10.40;98.00;;;;;;5054445;28;20467;-70
2021/05/20 04:00:28;;;;;;;1.20;0.90;;;10.40;98.00;;;;;;5051309;28;20820;-70
2021/05/20 04:02:54;;;;;;;1.20;0.90;;;10.40;98.00;;;;;;5054287;28;20449;-70
2021/05/20 04:05:21;;;;;;;1.20;1.00;;;10.30;98.00;;;;;;5052076;28;20457;-70
2021/05/20 04:07:47;;;;;;;1.20;1.00;;;10.30;98.00;;;;;;5054527;28;20486;-70
2021/05/20 04:10:16;;;;;;;1.20;0.97;;;10.30;98.00;;;;;;5050853;28;20524;-70
2021/05/20 04:12:43;;;;;;;1.20;1.00;;;10.30;98.00;;;;;;5053000;28;20452;-71
2021/05/20 04:15:11;;;;;;;1.20;0.90;;;10.30;98.00;;;;;;5052065;28;20950;-71
2021/05/20 04:17:37;;;;;;;1.20;1.00;;;10.20;98.00;;;;;;5054125;28;20816;-71
2021/05/20 04:20:05;;;;;;;1.20;0.93;;;10.30;98.00;;;;;;5050817;28;20504;-70
2021/05/20 04:22:32;;;;;;;1.20;1.00;;;10.40;98.00;;;;;;5054034;28;20942;-70
2021/05/20 04:24:58;;;;;;;1.20;1.00;;;10.40;98.00;;;;;;5051354;28;20461;-71
2021/05/20 04:27:26;;;;;;;1.30;1.03;;;10.40;98.00;;;;;;5054005;28;20465;-71
2021/05/20 04:29:52;;;;;;;1.20;1.00;;;10.50;98.00;;;;;;5051047;28;20460;-70
2021/05/20 04:32:19;;;;;;;1.20;0.97;;;10.40;98.00;;;;;;5053773;28;20465;-70
2021/05/20 04:34:45;;;;;;;1.20;0.90;;;10.50;98.00;;;;;;5051080;28;20462;-70
2021/05/20 04:37:12;;;;;;;1.20;1.00;;;10.50;98.00;;;;;;5053591;28;20461;-71
2021/05/20 04:39:38;;;;;;;1.20;1.00;;;10.50;98.00;;;;;;5050594;28;20485;-70
2021/05/20 04:42:05;;;;;;;1.20;1.00;;;10.40;98.00;;;;;;5051899;28;20966;-71
2021/05/20 04:44:33;;;;;;;1.20;1.00;;;10.40;98.00;;;;;;5050592;28;20460;-70
2021/05/20 04:46:59;;;;;;;1.20;1.10;;;10.40;98.00;;;;;;5053535;28;20869;-69
2021/05/20 04:49:26;;;;;;;1.20;1.00;;;10.40;98.00;;;;;;5050654;28;20463;-71
2021/05/20 04:51:52;;;;;;;1.20;1.00;;;10.50;98.00;;;;;;5053362;28;20473;-71
2021/05/20 04:54:19;;;;;;;1.30;1.00;;;10.50;98.00;;;;;;5050784;28;20454;-70
2021/05/20 04:56:45;;;;;;;1.20;0.90;;;10.60;98.00;;;;;;5052286;28;20813;-70
2021/05/20 04:59:11;;;;;;;1.20;1.00;;;10.60;98.00;;;;;;5050613;28;20485;-71
2021/05/20 05:01:39;;;;;;;1.20;1.00;;;10.60;98.00;;;;;;5053311;28;20972;-71
2021/05/20 05:04:06;;;;;;;1.20;1.00;;;10.70;98.00;;;;;;5050155;28;20484;-70
2021/05/20 05:06:32;;;;;;;1.20;0.90;;;10.70;98.00;;;;;;5053341;28;20456;-70
2021/05/20 05:08:59;;;;;;;1.20;0.90;;;10.80;98.00;;;;;;5050655;28;20475;-71
2021/05/20 05:11:25;;;;;;;1.20;1.00;;;10.80;98.00;;;;;;5053089;28;20512;-70
2021/05/20 05:13:52;;;;;;;1.20;1.00;;;10.90;98.00;;;;;;5050110;28;20497;-70
2021/05/20 05:16:18;;;;;;;1.20;0.90;;;11.00;98.00;;;;;;5053092;28;20459;-70
2021/05/20 05:18:48;;;;;;;1.67;1.10;;;10.90;98.00;;;;;;5050441;28;20508;-70
2021/05/20 05:21:14;;;;;;;1.50;1.10;;;11.00;98.00;;;;;;5052838;28;20464;-70
2021/05/20 05:23:41;;;;;;;1.20;0.90;;;11.10;98.00;;;;;;5052368;28;20483;-70
2021/05/20 05:26:08;;;;;;;1.20;1.00;;;11.10;98.00;;;;;;5051318;28;20950;-70
2021/05/20 05:28:34;;;;;;;1.20;0.90;;;11.10;98.00;;;;;;5052733;28;20465;-71
2021/05/20 05:31:00;;;;;;;1.20;1.00;;;11.20;98.00;;;;;;5050384;28;20464;-71
2021/05/20 05:33:27;;;;;;;1.20;1.00;;;11.20;98.00;;;;;;5052604;28;20805;-70
2021/05/20 05:35:55;;;;;;;1.20;0.97;;;11.10;98.00;;;;;;5049907;28;20518;-70
2021/05/20 05:38:21;;;;;;;1.20;1.00;;;11.20;98.00;;;;;;5052461;28;20459;-70
2021/05/20 05:40:48;;;;;;;1.20;1.00;;;11.20;98.00;;;;;;5049716;28;20498;-71
2021/05/20 05:43:15;;;;;;;1.20;0.90;;;11.20;98.00;;;;;;5052643;28;20467;-70
2021/05/20 05:45:42;;;;;;;1.20;0.90;;;11.30;98.00;;;;;;5049739;28;20458;-70
2021/05/20 05:48:11;;;;;;;1.20;1.00;;;11.20;98.00;;;;;;5052408;28;20859;-70
2021/05/20 05:50:38;;;;;;;1.20;0.97;;;11.30;98.00;;;;;;5049858;28;20456;-70
2021/05/20 05:53:07;;;;;;;1.20;0.93;;;11.50;98.00;;;;;;5051720;28;20483;-71
2021/05/20 05:55:34;;;;;;;1.20;1.00;;;11.40;98.00;;;;;;5049749;28;20454;-72
2021/05/20 05:58:00;;;;;;;1.60;1.07;;;11.40;98.00;;;;;;5052284;28;20461;-72
2021/05/20 06:00:27;;;;;;;1.30;1.00;;;11.50;98.00;;;;;;5049100;28;20490;-71
2021/05/20 06:02:53;;;;;;;1.20;1.00;;;11.60;98.00;;;;;;5052048;28;20452;-72
2021/05/20 06:05:20;;;;;;;1.20;0.90;;;11.60;98.00;;;;;;5049626;28;20524;-72
2021/05/20 06:07:47;;;;;;;1.20;0.90;;;11.50;98.00;;;;;;5051824;28;20519;-72
2021/05/20 06:10:14;;;;;;;1.20;0.90;;;11.40;98.00;;;;;;5049115;28;20483;-72
2021/05/20 06:12:41;;;;;;;1.50;1.10;;;11.30;98.00;;;;;;5051928;28;20475;-72
2021/05/20 06:15:09;;;;;;;1.20;1.00;;;11.30;98.00;;;;;;5049311;28;20466;-72
2021/05/20 06:17:37;;;;;;;1.20;0.90;;;11.40;98.00;;;;;;5051872;28;20464;-72
2021/05/20 06:20:05;;;;;;;1.20;0.90;;;11.40;98.00;;;;;;5048795;28;20542;-73
2021/05/20 06:22:31;;;;;;;1.20;0.97;;;11.40;98.00;;;;;;5051766;28;20778;-72
2021/05/20 06:24:58;;;;;;;1.20;0.90;;;11.40;98.00;;;;;;5049031;28;20471;-71
2021/05/20 06:27:27;;;;;;;1.20;1.00;;;11.40;98.00;;;;;;5051591;28;20463;-72
2021/05/20 06:29:53;;;;;;;1.20;1.00;;;11.50;98.00;;;;;;5049214;28;20453;-72
2021/05/20 06:32:20;;;;;;;1.20;0.93;;;11.50;98.00;;;;;;5051448;28;20465;-72
2021/05/20 06:34:47;;;;;;;1.20;1.00;;;11.40;98.00;;;;;;5048897;28;20455;-72
2021/05/20 06:37:14;;;;;;;1.20;0.90;;;11.40;98.00;;;;;;5051825;28;20814;-72
2021/05/20 06:39:40;;;;;;;1.20;0.90;;;11.30;98.00;;;;;;5049068;28;20962;-72
2021/05/20 06:42:10;;;;;;;1.30;1.00;;;11.30;98.00;;;;;;5051511;28;20472;-72
2021/05/20 06:44:38;;;;;;;1.20;1.00;;;11.40;98.00;;;;;;5049000;28;20465;-72
2021/05/20 06:47:04;;;;;;;1.20;1.00;;;11.30;98.00;;;;;;5050274;28;20508;-71
2021/05/20 06:49:31;;;;;;;1.20;1.00;;;11.40;98.00;;;;;;5049065;28;20597;-71
2021/05/20 06:51:58;;;;;;;1.20;1.00;;;11.50;98.00;;;;;;5051428;28;20464;-72
2021/05/20 06:54:24;;;;;;;1.20;0.90;;;11.70;98.00;;;;;;5048594;28;20925;-71
2021/05/20 06:56:54;;;;;;;1.20;1.00;;;11.70;98.00;;;;;;5051245;28;20465;-72
2021/05/20 07:02:06;;;;;;;1.20;1.00;;;11.70;98.00;;;;;;5049899;28;20924;-72
2021/05/20 07:04:33;;;;;;;1.20;1.00;;;11.80;98.00;;;;;;5049511;28;20657;-71
2021/05/20 07:07:02;;;;;;;1.30;1.10;;;11.80;98.00;;;;;;5054245;28;20806;-71
2021/05/20 07:09:29;;;;;;;1.20;1.00;;;12.00;98.00;;;;;;5052500;28;20943;-71
2021/05/20 07:11:56;;;;;;;1.20;1.00;;;12.20;98.00;;;;;;5054722;28;20478;-72
2021/05/20 07:14:23;;;;;;;1.20;0.93;;;12.30;98.00;;;;;;5052169;28;20466;-73
2021/05/20 07:16:50;;;;;;;1.20;1.00;;;12.40;98.00;;;;;;5054367;28;20515;-72
2021/05/20 07:19:18;;;;;;;1.20;1.00;;;12.20;98.00;;;;;;5052213;28;20485;-72
2021/05/20 07:21:45;;;;;;;1.20;0.90;;;12.20;98.00;;;;;;5054884;28;20534;-72
2021/05/20 07:24:11;;;;;;;1.20;1.00;;;12.30;98.00;;;;;;5052059;28;20468;-73
2021/05/20 07:26:38;;;;;;;1.20;1.00;;;12.30;98.00;;;;;;5054536;28;20463;-72
2021/05/20 07:29:05;;;;;;;1.20;1.00;;;12.30;98.00;;;;;;5051761;28;20820;-73
2021/05/20 07:31:32;;;;;;;2.23;1.30;;;12.30;98.00;;;;;;5054530;28;20492;-72
2021/05/20 07:33:59;;;;;;;1.20;0.90;;;12.60;98.00;;;;;;5051685;28;20465;-72
2021/05/20 07:36:26;;;;;;;1.20;0.90;;;12.70;98.00;;;;;;5054249;28;20861;-72
2021/05/20 07:38:53;;;;;;;1.20;1.00;;;12.80;98.00;;;;;;5053774;28;20814;-72
2021/05/20 07:41:22;;;;;;;1.67;1.20;;;13.20;98.00;;;;;;5052060;28;20471;-73
2021/05/20 07:43:49;;;;;;;1.20;1.00;;;13.40;98.00;;;;;;5054100;28;20861;-72
2021/05/20 07:46:16;;;;;;;1.20;0.93;;;13.30;98.00;;;;;;5051120;28;20805;-72
2021/05/20 07:48:42;;;;;;;1.30;1.10;;;13.40;98.00;;;;;;5054102;28;20518;-73
2021/05/20 07:51:09;;;;;;;1.20;1.00;;;13.50;98.00;;;;;;5050936;28;20509;-72
2021/05/20 07:53:36;;;;;;;1.30;1.10;;;13.50;98.00;;;;;;5054222;28;20511;-73
2021/05/20 07:56:03;;;;;;;1.23;1.07;;;13.40;98.00;;;;;;5050207;28;20477;-73
2021/05/20 07:58:31;;;;;;;1.20;0.90;;;13.40;98.00;;;;;;5052351;28;20555;-72
2021/05/20 08:01:00;;;;;;;1.20;0.90;;;13.30;98.00;;;;;;5050962;28;20575;-73
2021/05/20 08:03:29;;;;;;;1.87;1.20;;;13.40;98.00;;;;;;5053892;28;20826;-73
2021/05/20 08:06:02;;;;;;;1.20;0.90;;;13.40;98.00;;;;;;5051449;28;20456;-73
2021/05/20 08:08:33;;;;;;;1.20;1.00;;;13.60;98.00;;;;;;5053818;28;20538;-72
2021/05/20 08:11:03;;;;;;;1.20;1.00;;;13.60;98.00;;;;;;5051078;28;20969;-72
2021/05/20 08:13:32;;;;;;;1.20;1.10;;;13.70;98.00;;;;;;5053739;28;20460;-72
2021/05/20 08:16:01;;;;;;;1.20;1.10;;;13.70;98.00;;;;;;5049318;28;20803;-72
2021/05/20 08:18:28;;;;;;;1.20;1.00;;;13.80;98.00;;;;;;5052909;28;20462;-73
2021/05/20 08:20:55;;;;;;;1.20;1.00;;;13.70;98.00;;;;;;5049587;28;20676;-72
2021/05/20 08:23:22;;;;;;;2.03;1.30;;;13.40;98.00;;;;;;5051794;28;20944;-73
2021/05/20 08:25:48;;;;;;;1.20;1.00;;;13.40;98.00;;;;;;5050781;28;20459;-71
2021/05/20 08:28:16;;;;;;;1.20;1.00;;;13.40;98.00;;;;;;5052704;28;20463;-71
2021/05/20 08:30:43;;;;;;;1.40;1.20;;;13.50;98.00;;;;;;5050628;28;20553;-73
2021/05/20 08:33:10;;;;;;;1.20;1.00;;;13.30;98.00;;;;;;5052872;28;20813;-73
2021/05/20 08:35:37;;;;;;;1.30;1.00;;;13.20;98.00;;;;;;5050392;28;20462;-72
2021/05/20 08:38:04;;;;;;;1.20;1.00;;;13.30;98.00;;;;;;5052501;28;20453;-72
2021/05/20 08:40:31;;;;;;;1.20;0.97;;;13.30;98.00;;;;;;5050450;28;20818;-72
2021/05/20 08:42:57;;;;;;;1.20;0.90;;;13.40;98.00;;;;;;5052547;28;20464;-73
2021/05/20 08:45:27;;;;;;;1.20;1.00;;;13.70;98.00;;;;;;5050308;28;20461;-74
2021/05/20 08:47:55;;;;;;;1.30;1.00;;;13.90;98.00;;;;;;5052376;28;20474;-74
2021/05/20 08:50:23;;;;;;;1.20;1.00;;;14.10;98.00;;;;;;5049744;28;20454;-74
2021/05/20 08:52:50;;;;;;;1.97;1.53;;;14.10;98.00;;;;;;5052351;28;20794;-73
2021/05/20 08:55:23;;;;;;;1.63;1.20;;;14.10;98.00;;;;;;5049506;28;20470;-71
2021/05/20 08:57:51;;;;;;;1.20;1.00;;;14.10;98.00;;;;;;5052220;28;20508;-74
2021/05/20 09:00:19;;;;;;;1.20;1.10;;;13.90;98.00;;;;;;5049500;28;20484;-72
2021/05/20 09:02:47;;;;;;;1.20;1.00;;;13.70;98.00;;;;;;5051948;28;20461;-72
2021/05/20 09:05:16;;;;;;;1.20;1.10;;;13.60;98.00;;;;;;5049167;28;20454;-74
2021/05/20 09:07:48;;;;;;;1.23;1.00;;;13.60;98.00;;;;;;5050531;28;20470;-74
2021/05/20 09:10:18;;;;;;;1.30;1.10;;;13.50;98.00;;;;;;5049639;28;20482;-72
2021/05/20 09:12:46;;;;;;;1.20;1.10;;;13.60;98.00;;;;;;5051831;28;20484;-72
2021/05/20 09:15:22;;;;;;;1.20;0.90;;;13.70;98.00;;;;;;5049584;28;20536;-73
2021/05/20 09:17:50;;;;;;;1.20;1.10;;;13.90;98.00;;;;;;5051870;28;20459;-73
2021/05/20 09:20:18;;;;;;;1.20;1.00;;;14.00;98.00;;;;;;5048157;28;20484;-72
2021/05/20 09:22:45;;;;;;;1.20;1.00;;;14.10;98.00;;;;;;5051660;28;20484;-72
2021/05/20 09:25:14;;;;;;;1.20;1.10;;;14.20;98.00;;;;;;5049219;28;20461;-72
2021/05/20 09:27:42;;;;;;;1.20;1.10;;;14.30;98.00;;;;;;5050276;28;20478;-71
2021/05/20 09:30:19;;;;;;;1.37;1.20;;;14.30;97.80;;;;;;5049503;28;20447;-72
2021/05/20 09:32:53;;;;;;;1.20;1.03;;;14.20;97.50;;;;;;5051399;28;20459;-72
2021/05/20 09:35:21;;;;;;;1.20;1.17;;;14.00;98.00;;;;;;5047799;28;20546;-71
2021/05/20 09:37:53;;;;;;;1.20;1.00;;;13.90;98.00;;;;;;5051455;28;20467;-73
2021/05/20 09:40:23;;;;;;;1.20;1.00;;;14.00;98.00;;;;;;5049361;28;20541;-72
2021/05/20 09:42:50;;;;;;;1.20;1.00;;;14.10;98.00;;;;;;5051678;28;20703;-73
2021/05/20 09:45:19;;;;;;;1.20;1.00;;;14.20;98.00;;;;;;5049293;28;20463;-70
2021/05/20 09:47:46;;;;;;;1.20;1.10;;;14.40;98.00;;;;;;5050801;28;20517;-72
2021/05/20 09:50:15;;;;;;;1.20;1.00;;;14.50;98.00;;;;;;5048863;28;20461;-74
2021/05/20 09:52:42;;;;;;;1.20;0.90;;;14.50;97.50;;;;;;5050985;28;20468;-71
2021/05/20 09:55:24;;;;;;;1.20;1.00;;;14.50;97.40;;;;;;5048742;28;20516;-71
2021/05/20 09:57:51;;;;;;;1.20;1.00;;;14.40;97.10;;;;;;5050602;28;20939;-71
2021/05/20 10:00:20;;;;;;;1.20;1.10;;;14.30;95.70;;;;;;5048858;28;20488;-72
2021/05/20 10:02:47;;;;;;;1.20;1.00;;;14.10;97.10;;;;;;5050760;28;20469;-71
2021/05/20 10:05:24;;;;;;;1.20;1.00;;;13.90;98.00;;;;;;5048647;28;20470;-72
2021/05/20 10:07:51;;;;;;;1.20;1.00;;;13.90;98.00;;;;;;5051003;28;20803;-72
2021/05/20 10:10:18;;;;;;;1.57;1.30;;;14.00;98.00;;;;;;5048888;28;20502;-72
2021/05/20 10:12:45;;;;;;;1.20;1.00;;;14.10;96.50;;;;;;5050764;28;20810;-72
2021/05/20 10:15:14;;;;;;;1.20;1.00;;;14.50;95.80;;;;;;5048690;28;21002;-73
2021/05/20 10:17:41;;;;;;;1.20;1.00;;;15.20;96.80;;;;;;5051134;28;20466;-72
2021/05/20 10:20:10;;;;;;;1.30;1.20;;;15.80;95.00;;;;;;5048834;28;20488;-71
2021/05/20 10:22:39;;;;;;;1.20;1.07;;;16.00;91.10;;;;;;5051480;28;20456;-72
2021/05/20 10:25:07;;;;;;;1.20;1.00;;;15.70;91.00;;;;;;5050111;28;20453;-72
2021/05/20 10:27:36;;;;;;;1.20;1.00;;;15.50;93.10;;;;;;5051129;28;20455;-72
2021/05/20 10:30:05;;;;;;;1.20;1.10;;;15.30;96.90;;;;;;5049654;28;20464;-73
2021/05/20 10:32:32;;;;;;;1.20;1.00;;;15.10;97.20;;;;;;5054668;28;20457;-73
2021/05/20 10:35:01;;;;;;;1.20;1.10;;;14.90;98.00;;;;;;5047965;28;20516;-73
2021/05/20 10:37:37;;;;;;;1.20;1.10;;;14.90;98.00;;;;;;5050738;28;20450;-72
2021/05/20 10:40:21;;;;;;;2.43;1.27;;;14.90;98.00;;;;;;5034391;28;20486;-72
2021/05/20 10:43:01;;;;;;;1.20;1.00;;;14.80;98.00;;;;;;5054605;28;20486;-74
2021/05/20 10:45:28;;;;;;;1.20;1.00;;;14.60;98.00;;;;;;5050786;28;20471;-74
2021/05/20 10:48:23;;;;;;;1.50;1.20;;;14.70;98.00;;;;;;5050368;28;20464;-74
2021/05/20 10:51:13;;;;;;;1.20;1.10;;;14.70;98.00;;;;;;5049397;28;20439;-73
2021/05/20 10:53:51;;;;;;;1.20;1.03;;;14.70;98.00;;;;;;5053951;28;20851;-74
2021/05/20 10:59:53;;;;;;;1.20;1.00;;;15.20;98.00;;;;;;4990481;28;20568;-74
2021/05/20 11:02:51;;;;;;;1.20;1.10;;;15.50;98.00;;;;;;5048105;28;20457;-73
2021/05/20 11:05:53;;;;;;;1.20;1.10;;;16.00;98.00;;;;;;5047971;28;20491;-74
2021/05/20 11:09:02;;;;;;;1.20;1.00;;;16.80;97.60;;;;;;5048483;28;20903;-73
2021/05/20 11:11:50;;;;;;;1.20;1.10;;;17.60;93.80;;;;;;5048203;28;20463;-72
2021/05/20 11:14:46;;;;;;;1.60;1.20;;;18.10;90.60;;;;;;5048853;28;20457;-73
2021/05/20 11:17:38;;;;;;;1.20;1.07;;;18.00;87.80;;;;;;5049879;28;20465;-74
2021/05/20 11:20:42;;;;;;;1.20;1.10;;;17.90;92.00;;;;;;5045743;28;20635;-73
2021/05/20 11:23:37;;;;;;;1.20;1.00;;;18.20;88.10;;;;;;5030570;28;21044;-73
2021/05/20 11:26:20;;;;;;;1.20;1.00;;;18.90;85.90;;;;;;5027959;28;20446;-74
2021/05/20 11:29:09;;;;;;;1.33;1.03;;;19.70;86.60;;;;;;5028810;28;20455;-73
2021/05/20 11:31:36;;;;;;;1.30;1.20;;;20.00;82.10;;;;;;5027743;28;20450;-75
2021/05/20 11:36:58;;;;;;;1.20;1.10;;;21.00;78.50;;;;;;5029830;28;20453;-72
2021/05/20 11:39:25;;;;;;;1.20;1.10;;;21.30;78.10;;;;;;5027725;28;20941;-72
2021/05/20 11:41:52;;;;;;;1.20;1.00;;;21.40;76.50;;;;;;5029715;28;20467;-72
2021/05/20 11:44:20;;;;;;;1.20;1.10;;;21.70;75.90;;;;;;5030132;28;20451;-72
2021/05/20 11:46:49;;;;;;;2.90;1.30;;;21.60;74.20;;;;;;5029332;28;20592;-71
2021/05/20 11:49:21;;;;;;;1.40;1.37;;;21.50;76.60;;;;;;5030457;28;20470;-73
2021/05/20 11:51:50;;;;;;;1.20;1.10;;;20.90;76.70;;;;;;5031752;28;20482;-71
2021/05/20 11:54:18;;;;;;;1.20;1.10;;;20.50;78.70;;;;;;5033831;28;20821;-72
2021/05/20 11:56:48;;;;;;;1.20;1.00;;;19.50;78.90;;;;;;5031572;28;20458;-74
2021/05/20 11:59:15;;;;;;;1.20;1.10;;;18.60;82.70;;;;;;5034029;28;20451;-75
2021/05/20 12:01:44;;;;;;;1.20;1.10;;;18.00;84.70;;;;;;5031659;28;20463;-74
2021/05/20 12:04:11;;;;;;;1.20;1.10;;;17.70;87.10;;;;;;5033977;28;20458;-74
2021/05/20 12:06:39;;;;;;;1.30;1.10;;;17.40;86.70;;;;;;5029568;28;20463;-75
2021/05/20 12:09:07;;;;;;;1.40;1.20;;;17.40;87.60;;;;;;5034063;28;20983;-75
2021/05/20 12:11:34;;;;;;;1.20;1.00;;;17.40;88.00;;;;;;5030895;28;20458;-75
2021/05/20 12:14:01;;;;;;;1.50;1.20;;;17.30;87.20;;;;;;5033035;28;20462;-75
2021/05/20 12:16:30;;;;;;;1.60;1.50;;;17.30;87.70;;;;;;5030358;28;20454;-74
2021/05/20 12:18:57;;;;;;;1.20;0.97;;;17.50;87.90;;;;;;5033350;28;20584;-74
2021/05/20 12:21:23;;;;;;;1.20;1.10;;;17.80;86.90;;;;;;5030522;28;20535;-73
2021/05/20 12:23:58;;;;;;;1.20;1.10;;;18.00;88.30;;;;;;5032956;28;20516;-74
2021/05/20 12:26:26;;;;;;;1.20;1.00;;;17.80;88.40;;;;;;5030520;28;20458;-73
2021/05/20 12:28:54;;;;;;;1.77;1.10;;;17.90;90.20;;;;;;5032744;28;20455;-75
2021/05/20 12:31:20;;;;;;;1.43;1.10;;;17.90;88.40;;;;;;5030792;28;20458;-75
2021/05/20 12:33:47;;;;;;;1.87;1.13;;;17.80;89.30;;;;;;5032543;28;20462;-75
2021/05/20 12:36:31;;;;;;;1.53;1.10;;;17.70;88.90;;;;;;5030285;28;20458;-74
2021/05/20 12:38:58;;;;;;;1.20;1.03;;;17.50;87.60;;;;;;5032412;28;20473;-75
2021/05/20 12:41:35;;;;;;;1.20;1.00;;;17.20;88.50;;;;;;5030463;28;20859;-75
2021/05/20 12:44:17;;;;;;;1.30;1.20;;;16.90;91.00;;;;;;5032414;28;20458;-75
2021/05/20 12:46:44;;;;;;;1.20;1.00;;;17.00;91.50;;;;;;5030135;28;20474;-74
2021/05/20 12:49:19;;;;;;;1.20;1.03;;;17.10;91.00;;;;;;5032181;28;20466;-75
2021/05/20 12:51:56;;;;;;;1.30;1.10;;;17.20;90.70;;;;;;5029255;28;20850;-75
2021/05/20 12:54:28;;;;;;;1.20;1.03;;;17.40;90.10;;;;;;5032267;28;20450;-73
2021/05/20 12:57:06;;;;;;;1.67;1.17;;;17.50;87.40;;;;;;5032069;28;20487;-73
2021/05/20 12:59:38;;;;;;;1.20;1.00;;;17.60;88.20;;;;;;5029791;28;20885;-72
2021/05/20 13:02:15;;;;;;;1.20;1.07;;;17.80;88.70;;;;;;5032008;28;20454;-74
2021/05/20 13:04:42;;;;;;;1.20;1.10;;;18.00;86.70;;;;;;5029892;28;20453;-72
2021/05/20 13:07:12;;;;;;;1.20;1.10;;;18.10;85.30;;;;;;5031812;28;20451;-72